sensor_id;sensor_type;location;lat;lon;timestamp;P1;durP1;ratioP1;P2;durP2;ratioP2
12687;SDS011;6408;59.388;17.798;2022-07-23T00:00:20;25.95;;;7.45;;
12687;SDS011;6408;59.388;17.798;2022-07-23T00:02:47;23.33;;;6.57;;
12687;SDS011;6408;59.388;17.798;2022-07-23T00:05:14;21.60;;;7.28;;
12687;SDS011;6408;59.388;17.798;2022-07-23T00:07:43;24.70;;;7.35;;
12687;SDS011;6408;59.388;17.798;2022-07-23T00:10:11;21.02;;;7.65;;
12687;SDS011;6408;59.388;17.798;2022-07-23T00:12:38;22.70;;;8.48;;
12687;SDS011;6408;59.388;17.798;2022-07-23T00:15:06;26.52;;;8.75;;
12687;SDS011;6408;59.388;17.798;2022-07-23T00:17:33;26.02;;;8.70;;
12687;SDS011;6408;59.388;17.798;2022-07-23T00:20:01;24.73;;;8.45;;
12687;SDS011;6408;59.388;17.798;2022-07-23T00:22:29;21.00;;;8.05;;
12687;SDS011;6408;59.388;17.798;2022-07-23T00:24:58;22.23;;;7.72;;
12687;SDS011;6408;59.388;17.798;2022-07-23T00:27:25;18.77;;;7.13;;
12687;SDS011;6408;59.388;17.798;2022-07-23T00:29:52;23.73;;;8.77;;
12687;SDS011;6408;59.388;17.798;2022-07-23T00:32:19;22.85;;;7.95;;
12687;SDS011;6408;59.388;17.798;2022-07-23T00:34:51;17.48;;;7.35;;
12687;SDS011;6408;59.388;17.798;2022-07-23T00:37:18;19.60;;;7.30;;
12687;SDS011;6408;59.388;17.798;2022-07-23T00:39:46;18.73;;;7.55;;
12687;SDS011;6408;59.388;17.798;2022-07-23T00:42:14;21.00;;;8.15;;
12687;SDS011;6408;59.388;17.798;2022-07-23T00:44:41;20.77;;;7.53;;
12687;SDS011;6408;59.388;17.798;2022-07-23T00:47:08;19.77;;;7.47;;
12687;SDS011;6408;59.388;17.798;2022-07-23T00:49:35;26.45;;;8.07;;
12687;SDS011;6408;59.388;17.798;2022-07-23T00:52:02;18.25;;;7.50;;
12687;SDS011;6408;59.388;17.798;2022-07-23T00:54:31;19.30;;;8.88;;
12687;SDS011;6408;59.388;17.798;2022-07-23T00:56:59;17.67;;;7.47;;
12687;SDS011;6408;59.388;17.798;2022-07-23T00:59:28;22.27;;;7.45;;
12687;SDS011;6408;59.388;17.798;2022-07-23T01:01:55;23.27;;;7.15;;
12687;SDS011;6408;59.388;17.798;2022-07-23T01:04:22;20.80;;;7.38;;
12687;SDS011;6408;59.388;17.798;2022-07-23T01:06:49;21.10;;;7.03;;
12687;SDS011;6408;59.388;17.798;2022-07-23T01:09:19;20.60;;;6.13;;
12687;SDS011;6408;59.388;17.798;2022-07-23T01:11:46;20.05;;;6.30;;
12687;SDS011;6408;59.388;17.798;2022-07-23T01:14:15;17.67;;;4.90;;
12687;SDS011;6408;59.388;17.798;2022-07-23T01:16:44;12.60;;;4.45;;
12687;SDS011;6408;59.388;17.798;2022-07-23T01:19:12;14.82;;;5.53;;
12687;SDS011;6408;59.388;17.798;2022-07-23T01:21:43;12.32;;;4.68;;
12687;SDS011;6408;59.388;17.798;2022-07-23T01:24:15;14.27;;;5.32;;
12687;SDS011;6408;59.388;17.798;2022-07-23T01:26:44;17.65;;;5.05;;
12687;SDS011;6408;59.388;17.798;2022-07-23T01:29:12;10.25;;;4.13;;
12687;SDS011;6408;59.388;17.798;2022-07-23T01:31:40;11.70;;;4.25;;
12687;SDS011;6408;59.388;17.798;2022-07-23T01:34:07;12.35;;;4.40;;
12687;SDS011;6408;59.388;17.798;2022-07-23T01:36:34;10.10;;;4.13;;
12687;SDS011;6408;59.388;17.798;2022-07-23T01:39:01;11.05;;;4.28;;
12687;SDS011;6408;59.388;17.798;2022-07-23T01:41:30;10.82;;;4.15;;
12687;SDS011;6408;59.388;17.798;2022-07-23T01:43:57;12.10;;;4.10;;
12687;SDS011;6408;59.388;17.798;2022-07-23T01:46:23;8.52;;;4.18;;
12687;SDS011;6408;59.388;17.798;2022-07-23T01:48:50;9.32;;;3.40;;
12687;SDS011;6408;59.388;17.798;2022-07-23T01:51:17;11.68;;;3.83;;
12687;SDS011;6408;59.388;17.798;2022-07-23T01:53:44;9.05;;;3.38;;
12687;SDS011;6408;59.388;17.798;2022-07-23T01:56:11;6.25;;;3.38;;
12687;SDS011;6408;59.388;17.798;2022-07-23T01:58:41;7.88;;;3.80;;
12687;SDS011;6408;59.388;17.798;2022-07-23T02:01:08;6.95;;;3.00;;
12687;SDS011;6408;59.388;17.798;2022-07-23T02:03:35;6.10;;;2.95;;
12687;SDS011;6408;59.388;17.798;2022-07-23T02:06:02;5.88;;;2.67;;
12687;SDS011;6408;59.388;17.798;2022-07-23T02:08:29;6.32;;;2.65;;
12687;SDS011;6408;59.388;17.798;2022-07-23T02:10:56;6.65;;;2.70;;
12687;SDS011;6408;59.388;17.798;2022-07-23T02:13:22;7.07;;;2.20;;
12687;SDS011;6408;59.388;17.798;2022-07-23T02:15:51;4.47;;;1.98;;
12687;SDS011;6408;59.388;17.798;2022-07-23T02:18:18;2.50;;;1.60;;
12687;SDS011;6408;59.388;17.798;2022-07-23T02:20:45;3.13;;;1.73;;
12687;SDS011;6408;59.388;17.798;2022-07-23T02:23:11;2.95;;;1.52;;
12687;SDS011;6408;59.388;17.798;2022-07-23T02:25:38;2.38;;;1.33;;
12687;SDS011;6408;59.388;17.798;2022-07-23T02:28:06;2.55;;;1.27;;
12687;SDS011;6408;59.388;17.798;2022-07-23T02:30:33;2.88;;;1.20;;
12687;SDS011;6408;59.388;17.798;2022-07-23T02:33:01;1.10;;;1.00;;
12687;SDS011;6408;59.388;17.798;2022-07-23T02:35:28;4.10;;;1.15;;
12687;SDS011;6408;59.388;17.798;2022-07-23T02:37:55;1.65;;;1.15;;
12687;SDS011;6408;59.388;17.798;2022-07-23T02:40:21;2.13;;;1.17;;
12687;SDS011;6408;59.388;17.798;2022-07-23T02:42:48;1.73;;;0.80;;
12687;SDS011;6408;59.388;17.798;2022-07-23T02:45:15;1.17;;;0.95;;
12687;SDS011;6408;59.388;17.798;2022-07-23T02:47:42;2.33;;;0.95;;
12687;SDS011;6408;59.388;17.798;2022-07-23T02:50:10;1.65;;;1.10;;
12687;SDS011;6408;59.388;17.798;2022-07-23T02:52:37;2.13;;;1.20;;
12687;SDS011;6408;59.388;17.798;2022-07-23T02:55:04;1.38;;;0.95;;
12687;SDS011;6408;59.388;17.798;2022-07-23T02:57:31;1.25;;;0.80;;
12687;SDS011;6408;59.388;17.798;2022-07-23T02:59:58;1.98;;;1.00;;
12687;SDS011;6408;59.388;17.798;2022-07-23T03:02:25;1.85;;;0.88;;
12687;SDS011;6408;59.388;17.798;2022-07-23T03:04:52;1.35;;;0.90;;
12687;SDS011;6408;59.388;17.798;2022-07-23T03:07:20;1.73;;;1.00;;
12687;SDS011;6408;59.388;17.798;2022-07-23T03:09:47;2.15;;;0.80;;
12687;SDS011;6408;59.388;17.798;2022-07-23T03:12:13;1.95;;;1.08;;
12687;SDS011;6408;59.388;17.798;2022-07-23T03:14:40;1.33;;;1.20;;
12687;SDS011;6408;59.388;17.798;2022-07-23T03:17:07;1.42;;;0.90;;
12687;SDS011;6408;59.388;17.798;2022-07-23T03:19:35;1.70;;;1.17;;
12687;SDS011;6408;59.388;17.798;2022-07-23T03:22:02;1.73;;;1.20;;
12687;SDS011;6408;59.388;17.798;2022-07-23T03:24:30;1.20;;;1.10;;
12687;SDS011;6408;59.388;17.798;2022-07-23T03:27:11;1.50;;;1.08;;
12687;SDS011;6408;59.388;17.798;2022-07-23T03:29:39;1.30;;;0.80;;
12687;SDS011;6408;59.388;17.798;2022-07-23T03:32:06;1.98;;;1.10;;
12687;SDS011;6408;59.388;17.798;2022-07-23T03:34:32;1.83;;;0.98;;
12687;SDS011;6408;59.388;17.798;2022-07-23T03:36:59;2.22;;;1.20;;
12687;SDS011;6408;59.388;17.798;2022-07-23T03:39:26;1.45;;;1.35;;
12687;SDS011;6408;59.388;17.798;2022-07-23T03:41:54;1.35;;;1.00;;
12687;SDS011;6408;59.388;17.798;2022-07-23T03:44:21;1.67;;;1.08;;
12687;SDS011;6408;59.388;17.798;2022-07-23T03:46:48;1.10;;;1.00;;
12687;SDS011;6408;59.388;17.798;2022-07-23T03:49:14;1.58;;;1.40;;
12687;SDS011;6408;59.388;17.798;2022-07-23T03:51:41;1.63;;;1.35;;
12687;SDS011;6408;59.388;17.798;2022-07-23T03:54:08;2.88;;;1.10;;
12687;SDS011;6408;59.388;17.798;2022-07-23T03:56:36;2.08;;;1.35;;
12687;SDS011;6408;59.388;17.798;2022-07-23T03:59:07;2.13;;;1.30;;
12687;SDS011;6408;59.388;17.798;2022-07-23T04:01:35;2.72;;;1.30;;
12687;SDS011;6408;59.388;17.798;2022-07-23T04:04:02;2.05;;;1.45;;
12687;SDS011;6408;59.388;17.798;2022-07-23T04:06:29;1.88;;;1.45;;
12687;SDS011;6408;59.388;17.798;2022-07-23T04:08:55;1.90;;;1.50;;
12687;SDS011;6408;59.388;17.798;2022-07-23T04:11:23;2.10;;;1.30;;
12687;SDS011;6408;59.388;17.798;2022-07-23T04:13:49;1.80;;;1.23;;
12687;SDS011;6408;59.388;17.798;2022-07-23T04:16:18;2.10;;;1.35;;
12687;SDS011;6408;59.388;17.798;2022-07-23T04:18:44;1.63;;;1.27;;
12687;SDS011;6408;59.388;17.798;2022-07-23T04:21:11;2.38;;;1.38;;
12687;SDS011;6408;59.388;17.798;2022-07-23T04:23:38;2.83;;;1.17;;
12687;SDS011;6408;59.388;17.798;2022-07-23T04:26:05;1.60;;;1.40;;
12687;SDS011;6408;59.388;17.798;2022-07-23T04:28:31;3.17;;;1.40;;
12687;SDS011;6408;59.388;17.798;2022-07-23T04:30:58;3.13;;;1.40;;
12687;SDS011;6408;59.388;17.798;2022-07-23T04:33:27;3.58;;;1.50;;
12687;SDS011;6408;59.388;17.798;2022-07-23T04:35:53;2.63;;;1.30;;
12687;SDS011;6408;59.388;17.798;2022-07-23T04:38:20;2.45;;;1.48;;
12687;SDS011;6408;59.388;17.798;2022-07-23T04:40:47;4.95;;;1.38;;
12687;SDS011;6408;59.388;17.798;2022-07-23T04:43:14;1.52;;;1.33;;
12687;SDS011;6408;59.388;17.798;2022-07-23T04:45:40;2.35;;;1.20;;
12687;SDS011;6408;59.388;17.798;2022-07-23T04:48:07;2.33;;;1.75;;
12687;SDS011;6408;59.388;17.798;2022-07-23T04:50:35;1.77;;;1.40;;
12687;SDS011;6408;59.388;17.798;2022-07-23T04:53:02;2.03;;;1.45;;
12687;SDS011;6408;59.388;17.798;2022-07-23T04:55:29;2.35;;;1.55;;
12687;SDS011;6408;59.388;17.798;2022-07-23T04:57:56;3.20;;;1.40;;
12687;SDS011;6408;59.388;17.798;2022-07-23T05:00:22;2.28;;;1.40;;
12687;SDS011;6408;59.388;17.798;2022-07-23T05:02:49;3.92;;;1.50;;
12687;SDS011;6408;59.388;17.798;2022-07-23T05:05:16;1.60;;;1.50;;
12687;SDS011;6408;59.388;17.798;2022-07-23T05:07:44;1.50;;;1.40;;
12687;SDS011;6408;59.388;17.798;2022-07-23T05:10:11;2.05;;;1.17;;
12687;SDS011;6408;59.388;17.798;2022-07-23T05:12:37;2.55;;;1.20;;
12687;SDS011;6408;59.388;17.798;2022-07-23T05:15:04;2.03;;;1.42;;
12687;SDS011;6408;59.388;17.798;2022-07-23T05:17:31;2.20;;;1.10;;
12687;SDS011;6408;59.388;17.798;2022-07-23T05:19:58;3.17;;;1.38;;
12687;SDS011;6408;59.388;17.798;2022-07-23T05:22:25;2.53;;;1.55;;
12687;SDS011;6408;59.388;17.798;2022-07-23T05:24:53;1.40;;;1.30;;
12687;SDS011;6408;59.388;17.798;2022-07-23T05:27:20;2.47;;;1.30;;
12687;SDS011;6408;59.388;17.798;2022-07-23T05:29:47;2.35;;;1.20;;
12687;SDS011;6408;59.388;17.798;2022-07-23T05:32:13;1.63;;;1.15;;
12687;SDS011;6408;59.388;17.798;2022-07-23T05:34:40;1.73;;;1.10;;
12687;SDS011;6408;59.388;17.798;2022-07-23T05:37:07;3.35;;;1.42;;
12687;SDS011;6408;59.388;17.798;2022-07-23T05:39:34;2.35;;;1.30;;
12687;SDS011;6408;59.388;17.798;2022-07-23T05:42:02;2.45;;;1.27;;
12687;SDS011;6408;59.388;17.798;2022-07-23T05:44:29;2.35;;;1.20;;
12687;SDS011;6408;59.388;17.798;2022-07-23T05:46:56;1.45;;;1.27;;
12687;SDS011;6408;59.388;17.798;2022-07-23T05:49:22;1.83;;;1.17;;
12687;SDS011;6408;59.388;17.798;2022-07-23T05:51:49;1.88;;;0.90;;
12687;SDS011;6408;59.388;17.798;2022-07-23T05:54:16;1.67;;;1.20;;
12687;SDS011;6408;59.388;17.798;2022-07-23T05:56:43;1.05;;;1.00;;
12687;SDS011;6408;59.388;17.798;2022-07-23T05:59:11;0.93;;;0.93;;
12687;SDS011;6408;59.388;17.798;2022-07-23T06:01:39;1.63;;;1.20;;
12687;SDS011;6408;59.388;17.798;2022-07-23T06:04:06;1.13;;;1.02;;
12687;SDS011;6408;59.388;17.798;2022-07-23T06:06:33;1.77;;;0.82;;
12687;SDS011;6408;59.388;17.798;2022-07-23T06:09:00;1.90;;;1.10;;
12687;SDS011;6408;59.388;17.798;2022-07-23T06:11:27;1.33;;;0.90;;
12687;SDS011;6408;59.388;17.798;2022-07-23T06:13:54;0.85;;;0.85;;
12687;SDS011;6408;59.388;17.798;2022-07-23T06:16:22;1.77;;;1.10;;
12687;SDS011;6408;59.388;17.798;2022-07-23T06:18:49;1.10;;;0.90;;
12687;SDS011;6408;59.388;17.798;2022-07-23T06:21:16;1.15;;;0.80;;
12687;SDS011;6408;59.388;17.798;2022-07-23T06:23:42;1.10;;;1.00;;
12687;SDS011;6408;59.388;17.798;2022-07-23T06:26:09;0.85;;;0.80;;
12687;SDS011;6408;59.388;17.798;2022-07-23T06:28:36;1.63;;;0.80;;
12687;SDS011;6408;59.388;17.798;2022-07-23T06:31:03;1.42;;;0.90;;
12687;SDS011;6408;59.388;17.798;2022-07-23T06:33:31;1.20;;;0.80;;
12687;SDS011;6408;59.388;17.798;2022-07-23T06:35:57;1.15;;;1.05;;
12687;SDS011;6408;59.388;17.798;2022-07-23T06:38:24;1.10;;;1.00;;
12687;SDS011;6408;59.388;17.798;2022-07-23T06:40:51;0.80;;;0.80;;
12687;SDS011;6408;59.388;17.798;2022-07-23T06:43:17;1.00;;;0.60;;
12687;SDS011;6408;59.388;17.798;2022-07-23T06:45:44;1.15;;;1.00;;
12687;SDS011;6408;59.388;17.798;2022-07-23T06:48:11;0.50;;;0.50;;
12687;SDS011;6408;59.388;17.798;2022-07-23T06:50:39;1.15;;;0.93;;
12687;SDS011;6408;59.388;17.798;2022-07-23T06:53:06;0.80;;;0.80;;
12687;SDS011;6408;59.388;17.798;2022-07-23T06:55:33;0.88;;;0.88;;
12687;SDS011;6408;59.388;17.798;2022-07-23T06:58:03;0.85;;;0.85;;
12687;SDS011;6408;59.388;17.798;2022-07-23T07:00:30;1.13;;;0.80;;
12687;SDS011;6408;59.388;17.798;2022-07-23T07:02:57;2.30;;;1.10;;
12687;SDS011;6408;59.388;17.798;2022-07-23T07:05:24;0.90;;;0.90;;
12687;SDS011;6408;59.388;17.798;2022-07-23T07:07:53;1.52;;;0.90;;
12687;SDS011;6408;59.388;17.798;2022-07-23T07:10:20;1.10;;;0.95;;
12687;SDS011;6408;59.388;17.798;2022-07-23T07:12:47;1.08;;;0.95;;
12687;SDS011;6408;59.388;17.798;2022-07-23T07:15:14;1.00;;;0.90;;
12687;SDS011;6408;59.388;17.798;2022-07-23T07:17:41;1.55;;;0.90;;
12687;SDS011;6408;59.388;17.798;2022-07-23T07:20:09;1.92;;;1.02;;
12687;SDS011;6408;59.388;17.798;2022-07-23T07:22:36;1.00;;;0.90;;
12687;SDS011;6408;59.388;17.798;2022-07-23T07:25:05;1.40;;;0.90;;
12687;SDS011;6408;59.388;17.798;2022-07-23T07:27:32;1.27;;;0.90;;
12687;SDS011;6408;59.388;17.798;2022-07-23T07:29:59;1.13;;;0.88;;
12687;SDS011;6408;59.388;17.798;2022-07-23T07:32:26;1.50;;;0.88;;
12687;SDS011;6408;59.388;17.798;2022-07-23T07:34:53;1.27;;;0.80;;
12687;SDS011;6408;59.388;17.798;2022-07-23T07:37:19;0.60;;;0.60;;
12687;SDS011;6408;59.388;17.798;2022-07-23T07:39:46;1.52;;;0.90;;
12687;SDS011;6408;59.388;17.798;2022-07-23T07:42:14;0.95;;;0.88;;
12687;SDS011;6408;59.388;17.798;2022-07-23T07:44:41;0.90;;;0.90;;
12687;SDS011;6408;59.388;17.798;2022-07-23T07:47:07;1.67;;;0.90;;
12687;SDS011;6408;59.388;17.798;2022-07-23T07:49:34;0.60;;;0.60;;
12687;SDS011;6408;59.388;17.798;2022-07-23T07:52:01;0.82;;;0.82;;
12687;SDS011;6408;59.388;17.798;2022-07-23T07:54:28;0.73;;;0.73;;
12687;SDS011;6408;59.388;17.798;2022-07-23T07:56:54;1.23;;;0.60;;
12687;SDS011;6408;59.388;17.798;2022-07-23T07:59:23;0.65;;;0.65;;
12687;SDS011;6408;59.388;17.798;2022-07-23T08:01:50;0.73;;;0.70;;
12687;SDS011;6408;59.388;17.798;2022-07-23T08:04:17;0.70;;;0.70;;
12687;SDS011;6408;59.388;17.798;2022-07-23T08:06:44;1.20;;;0.75;;
12687;SDS011;6408;59.388;17.798;2022-07-23T08:09:11;0.98;;;0.73;;
12687;SDS011;6408;59.388;17.798;2022-07-23T08:11:37;0.77;;;0.73;;
12687;SDS011;6408;59.388;17.798;2022-07-23T08:14:04;1.00;;;0.60;;
12687;SDS011;6408;59.388;17.798;2022-07-23T08:16:32;1.33;;;0.65;;
12687;SDS011;6408;59.388;17.798;2022-07-23T08:18:59;1.10;;;0.73;;
12687;SDS011;6408;59.388;17.798;2022-07-23T08:21:26;0.80;;;0.80;;
12687;SDS011;6408;59.388;17.798;2022-07-23T08:23:53;3.03;;;0.93;;
12687;SDS011;6408;59.388;17.798;2022-07-23T08:26:19;0.73;;;0.73;;
12687;SDS011;6408;59.388;17.798;2022-07-23T08:28:46;0.75;;;0.75;;
12687;SDS011;6408;59.388;17.798;2022-07-23T08:31:13;2.25;;;0.82;;
12687;SDS011;6408;59.388;17.798;2022-07-23T08:33:42;1.48;;;0.60;;
12687;SDS011;6408;59.388;17.798;2022-07-23T08:36:09;0.70;;;0.70;;
12687;SDS011;6408;59.388;17.798;2022-07-23T08:38:36;0.50;;;0.50;;
12687;SDS011;6408;59.388;17.798;2022-07-23T08:41:03;0.65;;;0.65;;
12687;SDS011;6408;59.388;17.798;2022-07-23T08:43:31;0.93;;;0.80;;
12687;SDS011;6408;59.388;17.798;2022-07-23T08:46:00;0.50;;;0.50;;
12687;SDS011;6408;59.388;17.798;2022-07-23T08:48:29;0.68;;;0.68;;
12687;SDS011;6408;59.388;17.798;2022-07-23T08:50:59;0.82;;;0.80;;
12687;SDS011;6408;59.388;17.798;2022-07-23T08:53:28;0.52;;;0.52;;
12687;SDS011;6408;59.388;17.798;2022-07-23T08:55:56;0.68;;;0.55;;
12687;SDS011;6408;59.388;17.798;2022-07-23T08:58:24;0.73;;;0.57;;
12687;SDS011;6408;59.388;17.798;2022-07-23T09:00:51;0.60;;;0.60;;
12687;SDS011;6408;59.388;17.798;2022-07-23T09:03:19;0.50;;;0.50;;
12687;SDS011;6408;59.388;17.798;2022-07-23T09:05:47;1.13;;;0.70;;
12687;SDS011;6408;59.388;17.798;2022-07-23T09:08:18;0.60;;;0.60;;
12687;SDS011;6408;59.388;17.798;2022-07-23T09:10:47;0.52;;;0.52;;
12687;SDS011;6408;59.388;17.798;2022-07-23T09:13:32;0.50;;;0.50;;
12687;SDS011;6408;59.388;17.798;2022-07-23T09:16:03;0.40;;;0.40;;
12687;SDS011;6408;59.388;17.798;2022-07-23T09:18:34;0.75;;;0.70;;
12687;SDS011;6408;59.388;17.798;2022-07-23T09:21:14;0.40;;;0.40;;
12687;SDS011;6408;59.388;17.798;2022-07-23T09:23:52;1.38;;;0.68;;
12687;SDS011;6408;59.388;17.798;2022-07-23T09:26:24;0.63;;;0.50;;
12687;SDS011;6408;59.388;17.798;2022-07-23T09:29:03;0.65;;;0.52;;
12687;SDS011;6408;59.388;17.798;2022-07-23T09:31:41;0.60;;;0.60;;
12687;SDS011;6408;59.388;17.798;2022-07-23T09:34:11;1.08;;;0.50;;
12687;SDS011;6408;59.388;17.798;2022-07-23T09:36:39;1.02;;;0.70;;
12687;SDS011;6408;59.388;17.798;2022-07-23T09:39:08;0.60;;;0.60;;
12687;SDS011;6408;59.388;17.798;2022-07-23T09:41:37;0.68;;;0.52;;
12687;SDS011;6408;59.388;17.798;2022-07-23T09:44:10;1.52;;;0.65;;
12687;SDS011;6408;59.388;17.798;2022-07-23T09:46:50;1.45;;;0.80;;
12687;SDS011;6408;59.388;17.798;2022-07-23T09:49:23;0.75;;;0.60;;
12687;SDS011;6408;59.388;17.798;2022-07-23T09:51:54;0.70;;;0.70;;
12687;SDS011;6408;59.388;17.798;2022-07-23T09:54:25;0.68;;;0.68;;
12687;SDS011;6408;59.388;17.798;2022-07-23T09:56:56;0.88;;;0.70;;
12687;SDS011;6408;59.388;17.798;2022-07-23T09:59:24;0.90;;;0.77;;
12687;SDS011;6408;59.388;17.798;2022-07-23T10:01:53;0.82;;;0.70;;
12687;SDS011;6408;59.388;17.798;2022-07-23T10:04:21;2.25;;;0.90;;
12687;SDS011;6408;59.388;17.798;2022-07-23T10:06:50;1.80;;;0.77;;
12687;SDS011;6408;59.388;17.798;2022-07-23T10:09:21;0.70;;;0.70;;
12687;SDS011;6408;59.388;17.798;2022-07-23T10:11:53;1.58;;;0.68;;
12687;SDS011;6408;59.388;17.798;2022-07-23T10:14:25;0.90;;;0.70;;
12687;SDS011;6408;59.388;17.798;2022-07-23T10:16:56;0.70;;;0.70;;
12687;SDS011;6408;59.388;17.798;2022-07-23T10:19:23;1.60;;;0.70;;
12687;SDS011;6408;59.388;17.798;2022-07-23T10:21:52;1.15;;;0.70;;
12687;SDS011;6408;59.388;17.798;2022-07-23T10:24:33;0.70;;;0.70;;
12687;SDS011;6408;59.388;17.798;2022-07-23T10:27:15;1.00;;;0.90;;
12687;SDS011;6408;59.388;17.798;2022-07-23T10:30:00;1.50;;;0.70;;
12687;SDS011;6408;59.388;17.798;2022-07-23T10:32:35;1.00;;;0.90;;
12687;SDS011;6408;59.388;17.798;2022-07-23T10:35:10;1.63;;;0.75;;
12687;SDS011;6408;59.388;17.798;2022-07-23T10:37:45;0.82;;;0.80;;
12687;SDS011;6408;59.388;17.798;2022-07-23T10:40:16;1.42;;;0.80;;
12687;SDS011;6408;59.388;17.798;2022-07-23T10:42:45;1.58;;;0.90;;
12687;SDS011;6408;59.388;17.798;2022-07-23T10:45:24;1.50;;;0.90;;
12687;SDS011;6408;59.388;17.798;2022-07-23T10:47:55;1.15;;;0.90;;
12687;SDS011;6408;59.388;17.798;2022-07-23T10:50:23;1.52;;;1.42;;
12687;SDS011;6408;59.388;17.798;2022-07-23T10:53:08;1.85;;;1.10;;
12687;SDS011;6408;59.388;17.798;2022-07-23T10:55:45;2.60;;;0.90;;
12687;SDS011;6408;59.388;17.798;2022-07-23T10:58:17;0.93;;;0.80;;
12687;SDS011;6408;59.388;17.798;2022-07-23T11:00:46;1.92;;;0.93;;
12687;SDS011;6408;59.388;17.798;2022-07-23T11:03:29;1.88;;;1.00;;
12687;SDS011;6408;59.388;17.798;2022-07-23T11:05:58;1.92;;;1.00;;
12687;SDS011;6408;59.388;17.798;2022-07-23T11:08:25;1.15;;;1.00;;
12687;SDS011;6408;59.388;17.798;2022-07-23T11:10:54;0.85;;;0.80;;
12687;SDS011;6408;59.388;17.798;2022-07-23T11:13:40;1.13;;;0.88;;
12687;SDS011;6408;59.388;17.798;2022-07-23T11:16:12;1.00;;;0.90;;
12687;SDS011;6408;59.388;17.798;2022-07-23T11:18:54;1.05;;;1.00;;
12687;SDS011;6408;59.388;17.798;2022-07-23T11:21:46;3.72;;;1.10;;
12687;SDS011;6408;59.388;17.798;2022-07-23T11:24:18;2.30;;;0.90;;
12687;SDS011;6408;59.388;17.798;2022-07-23T11:26:55;1.25;;;0.80;;
12687;SDS011;6408;59.388;17.798;2022-07-23T11:29:38;1.15;;;0.88;;
12687;SDS011;6408;59.388;17.798;2022-07-23T11:32:18;0.90;;;0.90;;
12687;SDS011;6408;59.388;17.798;2022-07-23T11:34:54;1.08;;;0.98;;
12687;SDS011;6408;59.388;17.798;2022-07-23T11:40:05;2.08;;;1.00;;
12687;SDS011;6408;59.388;17.798;2022-07-23T11:42:36;1.80;;;0.98;;
12687;SDS011;6408;59.388;17.798;2022-07-23T11:45:04;1.80;;;1.33;;
12687;SDS011;6408;59.388;17.798;2022-07-23T11:47:32;3.13;;;1.10;;
12687;SDS011;6408;59.388;17.798;2022-07-23T11:50:02;1.80;;;1.40;;
12687;SDS011;6408;59.388;17.798;2022-07-23T11:52:32;1.10;;;1.00;;
12687;SDS011;6408;59.388;17.798;2022-07-23T11:55:00;2.28;;;1.10;;
12687;SDS011;6408;59.388;17.798;2022-07-23T11:57:29;4.05;;;1.40;;
12687;SDS011;6408;59.388;17.798;2022-07-23T12:00:00;4.53;;;1.00;;
12687;SDS011;6408;59.388;17.798;2022-07-23T12:02:31;2.38;;;1.40;;
12687;SDS011;6408;59.388;17.798;2022-07-23T12:04:58;1.35;;;1.05;;
12687;SDS011;6408;59.388;17.798;2022-07-23T12:07:26;1.92;;;1.00;;
12687;SDS011;6408;59.388;17.798;2022-07-23T12:09:56;2.92;;;1.20;;
12687;SDS011;6408;59.388;17.798;2022-07-23T12:12:24;0.93;;;0.90;;
12687;SDS011;6408;59.388;17.798;2022-07-23T12:14:52;1.67;;;1.05;;
12687;SDS011;6408;59.388;17.798;2022-07-23T12:17:27;2.85;;;1.00;;
12687;SDS011;6408;59.388;17.798;2022-07-23T12:19:55;0.88;;;0.88;;
12687;SDS011;6408;59.388;17.798;2022-07-23T12:22:25;1.27;;;0.98;;
12687;SDS011;6408;59.388;17.798;2022-07-23T12:24:59;1.08;;;0.93;;
12687;SDS011;6408;59.388;17.798;2022-07-23T12:27:27;1.35;;;1.00;;
12687;SDS011;6408;59.388;17.798;2022-07-23T12:29:54;1.52;;;0.98;;
12687;SDS011;6408;59.388;17.798;2022-07-23T12:32:23;1.88;;;1.10;;
12687;SDS011;6408;59.388;17.798;2022-07-23T12:35:01;1.52;;;1.20;;
12687;SDS011;6408;59.388;17.798;2022-07-23T12:37:30;1.95;;;1.20;;
12687;SDS011;6408;59.388;17.798;2022-07-23T12:40:03;1.42;;;1.15;;
12687;SDS011;6408;59.388;17.798;2022-07-23T12:42:49;1.80;;;1.10;;
12687;SDS011;6408;59.388;17.798;2022-07-23T12:45:17;1.20;;;1.10;;
12687;SDS011;6408;59.388;17.798;2022-07-23T12:47:52;1.88;;;0.90;;
12687;SDS011;6408;59.388;17.798;2022-07-23T12:50:31;2.90;;;1.00;;
12687;SDS011;6408;59.388;17.798;2022-07-23T12:53:06;0.80;;;0.80;;
12687;SDS011;6408;59.388;17.798;2022-07-23T12:55:34;1.30;;;1.10;;
12687;SDS011;6408;59.388;17.798;2022-07-23T12:58:09;1.10;;;1.00;;
12687;SDS011;6408;59.388;17.798;2022-07-23T13:00:51;1.52;;;1.00;;
12687;SDS011;6408;59.388;17.798;2022-07-23T13:06:10;1.85;;;0.80;;
12687;SDS011;6408;59.388;17.798;2022-07-23T13:08:38;1.98;;;1.00;;
12687;SDS011;6408;59.388;17.798;2022-07-23T13:11:06;1.00;;;1.00;;
12687;SDS011;6408;59.388;17.798;2022-07-23T13:13:33;1.20;;;1.10;;
12687;SDS011;6408;59.388;17.798;2022-07-23T13:16:02;1.45;;;0.82;;
12687;SDS011;6408;59.388;17.798;2022-07-23T13:18:29;1.20;;;1.10;;
12687;SDS011;6408;59.388;17.798;2022-07-23T13:20:57;1.20;;;1.10;;
12687;SDS011;6408;59.388;17.798;2022-07-23T13:23:25;1.83;;;1.10;;
12687;SDS011;6408;59.388;17.798;2022-07-23T13:25:52;2.45;;;1.20;;
12687;SDS011;6408;59.388;17.798;2022-07-23T13:28:19;1.38;;;1.10;;
12687;SDS011;6408;59.388;17.798;2022-07-23T13:30:49;1.17;;;1.08;;
12687;SDS011;6408;59.388;17.798;2022-07-23T13:33:17;4.70;;;1.00;;
12687;SDS011;6408;59.388;17.798;2022-07-23T13:35:44;1.02;;;0.90;;
12687;SDS011;6408;59.388;17.798;2022-07-23T13:38:13;1.58;;;1.08;;
12687;SDS011;6408;59.388;17.798;2022-07-23T13:40:40;1.10;;;1.00;;
12687;SDS011;6408;59.388;17.798;2022-07-23T13:43:09;1.95;;;0.90;;
12687;SDS011;6408;59.388;17.798;2022-07-23T13:45:37;1.48;;;0.93;;
12687;SDS011;6408;59.388;17.798;2022-07-23T13:48:04;1.70;;;1.00;;
12687;SDS011;6408;59.388;17.798;2022-07-23T13:50:32;1.13;;;1.00;;
12687;SDS011;6408;59.388;17.798;2022-07-23T13:53:00;0.95;;;0.90;;
12687;SDS011;6408;59.388;17.798;2022-07-23T13:55:29;1.75;;;1.10;;
12687;SDS011;6408;59.388;17.798;2022-07-23T13:57:56;1.20;;;1.10;;
12687;SDS011;6408;59.388;17.798;2022-07-23T14:00:24;1.40;;;1.15;;
12687;SDS011;6408;59.388;17.798;2022-07-23T14:02:51;1.80;;;1.27;;
12687;SDS011;6408;59.388;17.798;2022-07-23T14:05:19;1.65;;;1.20;;
12687;SDS011;6408;59.388;17.798;2022-07-23T14:07:46;2.83;;;1.25;;
12687;SDS011;6408;59.388;17.798;2022-07-23T14:10:15;1.58;;;1.20;;
12687;SDS011;6408;59.388;17.798;2022-07-23T14:12:44;1.77;;;1.33;;
12687;SDS011;6408;59.388;17.798;2022-07-23T14:15:11;2.17;;;1.15;;
12687;SDS011;6408;59.388;17.798;2022-07-23T14:17:39;2.33;;;1.20;;
12687;SDS011;6408;59.388;17.798;2022-07-23T14:20:07;1.30;;;1.20;;
12687;SDS011;6408;59.388;17.798;2022-07-23T14:22:35;1.10;;;1.00;;
12687;SDS011;6408;59.388;17.798;2022-07-23T14:25:02;1.10;;;1.00;;
12687;SDS011;6408;59.388;17.798;2022-07-23T14:27:30;1.65;;;1.17;;
12687;SDS011;6408;59.388;17.798;2022-07-23T14:29:58;1.02;;;0.88;;
12687;SDS011;6408;59.388;17.798;2022-07-23T14:32:25;1.27;;;1.17;;
12687;SDS011;6408;59.388;17.798;2022-07-23T14:34:52;1.77;;;1.25;;
12687;SDS011;6408;59.388;17.798;2022-07-23T14:37:19;2.50;;;1.10;;
12687;SDS011;6408;59.388;17.798;2022-07-23T14:39:46;2.58;;;1.00;;
12687;SDS011;6408;59.388;17.798;2022-07-23T14:42:13;1.15;;;1.00;;
12687;SDS011;6408;59.388;17.798;2022-07-23T14:44:39;3.17;;;1.40;;
12687;SDS011;6408;59.388;17.798;2022-07-23T14:47:08;2.55;;;1.00;;
12687;SDS011;6408;59.388;17.798;2022-07-23T14:49:36;1.30;;;1.10;;
12687;SDS011;6408;59.388;17.798;2022-07-23T14:52:03;1.13;;;0.98;;
12687;SDS011;6408;59.388;17.798;2022-07-23T14:54:31;0.98;;;0.90;;
12687;SDS011;6408;59.388;17.798;2022-07-23T14:56:59;1.65;;;1.00;;
12687;SDS011;6408;59.388;17.798;2022-07-23T14:59:27;0.90;;;0.90;;